createdAt,value
2017-07-24T00:00:42.410Z,1.50
2017-07-24T00:01:47.478Z,1.33
2017-07-24T00:02:52.448Z,1.30
2017-07-24T00:03:57.910Z,1.50
2017-07-24T00:05:02.982Z,0.93
2017-07-24T00:06:08.030Z,1.60
2017-07-24T00:07:13.014Z,1.30
2017-07-24T00:08:18.065Z,1.12
2017-07-24T00:09:23.166Z,1.15
2017-07-24T00:10:30.054Z,1.00
2017-07-24T00:11:38.927Z,1.65
2017-07-24T00:12:43.957Z,1.42
2017-07-24T00:13:49.394Z,1.35
2017-07-24T00:14:54.416Z,1.30
2017-07-24T00:15:59.538Z,1.40
2017-07-24T00:17:04.579Z,1.55
2017-07-24T00:18:09.562Z,1.35
2017-07-24T00:19:14.567Z,1.40
2017-07-24T00:20:19.525Z,1.50
2017-07-24T00:21:25.258Z,1.50
2017-07-24T00:22:30.347Z,1.30
2017-07-24T00:23:35.399Z,1.40
2017-07-24T00:24:40.414Z,1.50
2017-07-24T00:25:45.474Z,1.50
2017-07-24T00:26:50.990Z,1.62
2017-07-24T00:27:56.041Z,1.25
2017-07-24T00:29:01.035Z,1.30
2017-07-24T00:30:06.148Z,1.40
2017-07-24T00:31:11.194Z,2.37
2017-07-24T00:32:16.225Z,1.60
2017-07-24T00:33:21.242Z,1.33
2017-07-24T00:34:26.341Z,1.58
2017-07-24T00:35:31.347Z,1.50
2017-07-24T00:36:36.329Z,1.60
2017-07-24T00:37:41.435Z,1.30
2017-07-24T00:38:46.445Z,1.30
2017-07-24T00:39:52.178Z,1.60
2017-07-24T00:40:57.166Z,1.50
2017-07-24T00:42:02.256Z,1.30
2017-07-24T00:43:07.376Z,1.58
2017-07-24T00:44:12.409Z,1.60
2017-07-24T00:45:17.504Z,1.30
2017-07-24T00:46:22.577Z,1.15
2017-07-24T00:47:27.558Z,1.60
2017-07-24T00:48:35.191Z,1.48
2017-07-24T00:49:40.137Z,1.67
2017-07-24T00:50:45.153Z,1.30
2017-07-24T00:51:50.177Z,1.55
2017-07-24T00:53:04.017Z,1.40
2017-07-24T00:54:09.041Z,1.48
2017-07-24T00:55:14.077Z,1.60
2017-07-24T00:56:19.085Z,1.58
2017-07-24T00:57:24.059Z,1.50
2017-07-24T00:58:29.203Z,1.48
2017-07-24T00:59:34.296Z,1.70
2017-07-24T01:00:39.323Z,1.50
2017-07-24T01:01:44.391Z,1.75
2017-07-24T01:02:49.392Z,1.50
2017-07-24T01:03:54.475Z,1.90
2017-07-24T01:04:59.490Z,1.33
2017-07-24T01:06:05.014Z,1.40
2017-07-24T01:07:10.045Z,1.60
2017-07-24T01:08:15.109Z,1.50
2017-07-24T01:09:23.708Z,1.55
2017-07-24T01:10:28.717Z,1.50
2017-07-24T01:11:33.915Z,1.87
2017-07-24T01:12:38.939Z,1.50
2017-07-24T01:13:44.002Z,1.45
2017-07-24T01:14:49.082Z,1.17
2017-07-24T01:15:54.130Z,2.08
2017-07-24T01:17:00.110Z,1.80
2017-07-24T01:18:05.165Z,1.98
2017-07-24T01:19:10.269Z,1.60
2017-07-24T01:20:15.338Z,1.70
2017-07-24T01:21:20.569Z,1.70
2017-07-24T01:22:25.691Z,1.50
2017-07-24T01:23:31.298Z,1.55
2017-07-24T01:24:36.817Z,1.40
2017-07-24T01:25:41.878Z,1.70
2017-07-24T01:26:47.019Z,1.65
2017-07-24T01:27:52.063Z,1.60
2017-07-24T01:28:57.126Z,1.70
2017-07-24T01:30:03.222Z,2.42
2017-07-24T01:31:10.481Z,1.40
2017-07-24T01:32:15.607Z,1.42
2017-07-24T01:33:20.622Z,1.35
2017-07-24T01:34:25.718Z,1.70
2017-07-24T01:35:30.806Z,1.67
2017-07-24T01:36:35.885Z,1.58
2017-07-24T01:37:40.900Z,1.50
2017-07-24T01:38:46.013Z,1.55
2017-07-24T01:39:51.046Z,1.52
2017-07-24T01:40:56.031Z,1.42
2017-07-24T01:42:01.110Z,1.60
2017-07-24T01:43:06.220Z,1.55
2017-07-24T01:44:11.270Z,1.85
2017-07-24T01:45:18.162Z,1.95
2017-07-24T01:46:22.837Z,1.75
2017-07-24T01:47:27.854Z,1.87
2017-07-24T01:48:32.969Z,1.73
2017-07-24T01:49:37.286Z,2.30
2017-07-24T01:50:42.283Z,1.27
2017-07-24T01:51:47.258Z,1.80
2017-07-24T01:52:52.235Z,1.70
2017-07-24T01:53:56.893Z,1.90
2017-07-24T01:55:01.518Z,1.60
2017-07-24T01:56:06.565Z,1.50
2017-07-24T01:57:11.550Z,3.05
2017-07-24T01:58:16.541Z,1.75
2017-07-24T01:59:21.569Z,1.62
2017-07-24T02:00:26.593Z,1.55
2017-07-24T02:01:30.982Z,1.70
2017-07-24T02:02:35.345Z,1.67
2017-07-24T02:03:40.418Z,1.55
2017-07-24T02:04:45.423Z,2.03
2017-07-24T02:05:50.149Z,1.90
2017-07-24T02:06:55.183Z,2.08
2017-07-24T02:08:00.241Z,1.65
2017-07-24T02:09:04.518Z,1.55
2017-07-24T02:10:09.725Z,1.42
2017-07-24T02:11:14.767Z,2.05
2017-07-24T02:12:19.786Z,1.60
2017-07-24T02:13:24.840Z,1.60
2017-07-24T02:14:29.846Z,1.67
2017-07-24T02:15:34.955Z,1.70
2017-07-24T02:16:40.008Z,1.70
2017-07-24T02:17:44.986Z,2.30
2017-07-24T02:18:50.074Z,1.80
2017-07-24T02:19:56.383Z,1.70
2017-07-24T02:21:01.971Z,1.60
2017-07-24T02:22:06.964Z,1.95
2017-07-24T02:23:12.052Z,1.67
2017-07-24T02:24:17.128Z,1.70
2017-07-24T02:25:22.209Z,1.75
2017-07-24T02:26:27.330Z,1.90
2017-07-24T02:27:32.529Z,1.80
2017-07-24T02:28:37.562Z,1.87
2017-07-24T02:29:43.271Z,1.85
2017-07-24T02:30:48.330Z,2.15
2017-07-24T02:31:53.374Z,1.95
2017-07-24T02:32:58.409Z,2.28
2017-07-24T02:34:03.491Z,1.83
2017-07-24T02:35:08.472Z,1.67
2017-07-24T02:36:13.550Z,2.08
2017-07-24T02:37:18.598Z,2.25
2017-07-24T02:38:23.635Z,2.12
2017-07-24T02:39:28.622Z,1.80
2017-07-24T02:40:34.194Z,1.87
2017-07-24T02:41:39.189Z,2.00
2017-07-24T02:42:44.286Z,1.90
2017-07-24T02:43:49.374Z,1.80
2017-07-24T02:44:54.438Z,2.40
2017-07-24T02:46:00.194Z,1.67
2017-07-24T02:47:05.205Z,1.80
2017-07-24T02:48:10.230Z,2.00
2017-07-24T02:49:15.289Z,2.00
2017-07-24T02:50:20.407Z,1.60
2017-07-24T02:51:25.453Z,2.30
2017-07-24T02:52:30.543Z,1.92
2017-07-24T02:53:37.926Z,1.80
2017-07-24T02:54:44.642Z,2.00
2017-07-24T02:55:51.555Z,2.10
2017-07-24T02:56:56.610Z,2.00
2017-07-24T02:58:01.692Z,2.05
2017-07-24T02:59:06.814Z,2.05
2017-07-24T03:00:12.451Z,2.17
2017-07-24T03:01:17.450Z,2.35
2017-07-24T03:02:22.538Z,2.08
2017-07-24T03:03:27.738Z,2.05
2017-07-24T03:04:32.838Z,2.00
2017-07-24T03:05:37.868Z,2.20
2017-07-24T03:06:42.918Z,1.87
2017-07-24T03:07:47.968Z,2.17
2017-07-24T03:08:53.835Z,2.30
2017-07-24T03:09:58.886Z,2.10
2017-07-24T03:11:03.930Z,1.83
2017-07-24T03:12:09.014Z,2.20
2017-07-24T03:13:14.104Z,2.00
2017-07-24T03:14:20.715Z,1.98
2017-07-24T03:15:28.257Z,1.40
2017-07-24T03:16:33.321Z,2.25
2017-07-24T03:17:38.313Z,2.00
2017-07-24T03:18:43.382Z,2.00
2017-07-24T03:19:48.402Z,1.92
2017-07-24T03:20:53.502Z,2.05
2017-07-24T03:21:58.541Z,2.00
2017-07-24T03:23:03.533Z,1.70
2017-07-24T03:24:09.804Z,2.12
2017-07-24T03:25:14.799Z,2.30
2017-07-24T03:26:19.830Z,2.15
2017-07-24T03:27:24.896Z,2.20
2017-07-24T03:28:29.981Z,1.90
2017-07-24T03:29:35.060Z,2.28
2017-07-24T03:30:40.232Z,2.03
2017-07-24T03:31:45.236Z,2.47
2017-07-24T03:32:50.317Z,2.10
2017-07-24T03:33:56.042Z,1.80
2017-07-24T03:35:01.137Z,2.55
2017-07-24T03:36:06.170Z,2.10
2017-07-24T03:37:11.297Z,2.15
2017-07-24T03:38:16.382Z,2.05
2017-07-24T03:39:21.420Z,2.00
2017-07-24T03:40:26.419Z,2.10
2017-07-24T03:41:31.498Z,1.87
2017-07-24T03:42:36.605Z,2.10
2017-07-24T03:43:42.321Z,1.77
2017-07-24T03:44:48.877Z,2.53
2017-07-24T03:45:54.049Z,2.10
2017-07-24T03:46:59.093Z,1.92
2017-07-24T03:48:04.081Z,2.00
2017-07-24T03:49:09.769Z,2.10
2017-07-24T03:50:14.846Z,2.05
2017-07-24T03:51:20.611Z,2.40
2017-07-24T03:52:25.599Z,2.17
2017-07-24T03:53:30.813Z,2.05
2017-07-24T03:54:35.884Z,3.15
2017-07-24T03:55:40.968Z,2.12
2017-07-24T03:56:47.761Z,2.00
2017-07-24T03:57:52.726Z,2.10
2017-07-24T03:58:57.813Z,2.12
2017-07-24T04:00:03.495Z,2.50
2017-07-24T04:01:08.524Z,1.90
2017-07-24T04:02:13.699Z,2.30
2017-07-24T04:03:18.695Z,2.08
2017-07-24T04:04:23.974Z,2.30
2017-07-24T04:05:29.314Z,2.05
2017-07-24T04:06:34.499Z,2.05
2017-07-24T04:07:39.554Z,1.50
2017-07-24T04:08:44.661Z,1.85
2017-07-24T04:09:49.797Z,2.25
2017-07-24T04:10:54.799Z,2.10
2017-07-24T04:11:59.873Z,2.00
2017-07-24T04:13:04.972Z,2.60
2017-07-24T04:14:10.051Z,2.20
2017-07-24T04:15:15.219Z,1.90
2017-07-24T04:16:21.224Z,2.20
2017-07-24T04:17:34.127Z,2.53
2017-07-24T04:18:40.841Z,2.00
2017-07-24T04:19:47.245Z,2.10
2017-07-24T04:20:53.730Z,2.15
2017-07-24T04:22:00.173Z,1.98
2017-07-24T04:23:06.470Z,2.67
2017-07-24T04:24:12.644Z,2.30
2017-07-24T04:25:19.870Z,2.20
2017-07-24T04:26:27.323Z,2.60
2017-07-24T04:27:34.668Z,2.80
2017-07-24T04:28:42.050Z,2.83
2017-07-24T04:29:48.676Z,2.22
2017-07-24T04:30:53.726Z,2.40
2017-07-24T04:31:58.829Z,1.92
2017-07-24T04:33:03.907Z,2.12
2017-07-24T04:34:08.986Z,2.20
2017-07-24T04:35:14.066Z,2.40
2017-07-24T04:36:19.141Z,2.15
2017-07-24T04:37:24.173Z,2.30
2017-07-24T04:38:29.926Z,2.58
2017-07-24T04:39:35.040Z,2.40
2017-07-24T04:40:40.086Z,2.60
2017-07-24T04:41:45.181Z,3.03
2017-07-24T04:42:50.333Z,2.20
2017-07-24T04:43:55.429Z,2.35
2017-07-24T04:45:00.455Z,2.80
2017-07-24T04:46:05.516Z,2.33
2017-07-24T04:47:10.601Z,2.50
2017-07-24T04:48:15.734Z,2.70
2017-07-24T04:49:20.861Z,2.40
2017-07-24T04:50:25.846Z,2.42
2017-07-24T04:51:36.364Z,2.50
2017-07-24T04:52:41.367Z,2.28
2017-07-24T04:53:46.475Z,2.58
2017-07-24T04:54:51.526Z,2.80
2017-07-24T04:55:56.623Z,2.50
2017-07-24T04:57:01.693Z,2.75
2017-07-24T04:58:06.754Z,3.45
2017-07-24T04:59:15.564Z,2.22
2017-07-24T05:00:21.615Z,2.55
2017-07-24T05:01:26.617Z,2.80
2017-07-24T05:02:32.034Z,2.30
2017-07-24T05:03:39.174Z,2.25
2017-07-24T05:04:44.245Z,2.60
2017-07-24T05:05:49.315Z,2.65
2017-07-24T05:06:54.293Z,2.53
2017-07-24T05:07:59.377Z,2.58
2017-07-24T05:09:03.752Z,2.62
2017-07-24T05:10:08.857Z,2.47
2017-07-24T05:11:13.913Z,2.35
2017-07-24T05:12:19.006Z,2.92
2017-07-24T05:13:24.092Z,2.30
2017-07-24T05:14:29.176Z,2.55
2017-07-24T05:15:34.310Z,2.67
2017-07-24T05:16:39.338Z,2.30
2017-07-24T05:17:44.485Z,2.67
2017-07-24T05:18:49.479Z,2.42
2017-07-24T05:19:54.494Z,2.45
2017-07-24T05:20:59.605Z,3.40
2017-07-24T05:22:04.650Z,2.60
2017-07-24T05:23:09.721Z,2.90
2017-07-24T05:24:14.726Z,2.70
2017-07-24T05:25:19.424Z,2.40
2017-07-24T05:26:24.499Z,2.17
2017-07-24T05:27:29.556Z,2.28
2017-07-24T05:28:34.599Z,2.67
2017-07-24T05:29:39.631Z,2.12
2017-07-24T05:30:44.707Z,2.30
2017-07-24T05:31:49.838Z,2.35
2017-07-24T05:32:54.879Z,2.42
2017-07-24T05:33:59.958Z,2.33
2017-07-24T05:35:05.042Z,2.35
2017-07-24T05:36:10.139Z,2.30
2017-07-24T05:37:15.249Z,2.15
2017-07-24T05:38:20.298Z,2.30
2017-07-24T05:39:25.366Z,2.35
2017-07-24T05:40:30.353Z,2.40
2017-07-24T05:41:35.324Z,2.20
2017-07-24T05:42:40.179Z,2.45
2017-07-24T05:43:45.213Z,2.50
2017-07-24T05:44:50.334Z,2.58
2017-07-24T05:45:55.346Z,2.75
2017-07-24T05:47:00.352Z,2.22
2017-07-24T05:48:05.482Z,2.72
2017-07-24T05:49:11.891Z,2.53
2017-07-24T05:50:18.734Z,3.08
2017-07-24T05:51:24.243Z,2.30
2017-07-24T05:52:29.857Z,2.20
2017-07-24T05:53:35.009Z,2.25
2017-07-24T05:54:41.870Z,2.17
2017-07-24T05:55:53.510Z,2.55
2017-07-24T05:57:02.400Z,1.90
2017-07-24T05:58:08.369Z,2.30
2017-07-24T05:59:13.614Z,2.70
2017-07-24T06:00:20.452Z,2.10
2017-07-24T06:01:26.799Z,1.95
2017-07-24T06:02:38.401Z,2.30
2017-07-24T06:03:45.202Z,2.60
2017-07-24T06:04:51.848Z,2.33
2017-07-24T06:05:57.326Z,2.60
2017-07-24T06:07:02.386Z,2.53
2017-07-24T06:08:10.511Z,1.90
2017-07-24T06:09:15.582Z,2.42
2017-07-24T06:10:20.637Z,1.85
2017-07-24T06:11:26.392Z,3.17
2017-07-24T06:12:31.457Z,2.17
2017-07-24T06:13:36.461Z,2.03
2017-07-24T06:14:41.615Z,1.90
2017-07-24T06:15:46.657Z,2.60
2017-07-24T06:16:51.700Z,2.50
2017-07-24T06:17:57.311Z,2.03
2017-07-24T06:19:02.366Z,2.05
2017-07-24T06:20:07.463Z,2.62
2017-07-24T06:21:12.577Z,2.12
2017-07-24T06:22:17.726Z,2.00
2017-07-24T06:23:22.858Z,2.80
2017-07-24T06:24:27.908Z,1.67
2017-07-24T06:25:32.956Z,1.80
2017-07-24T06:26:38.062Z,1.75
2017-07-24T06:27:43.122Z,2.50
2017-07-24T06:28:48.112Z,2.15
2017-07-24T06:29:53.109Z,2.00
2017-07-24T06:30:58.096Z,2.00
2017-07-24T06:32:03.194Z,2.35
2017-07-24T06:33:08.270Z,1.70
2017-07-24T06:34:14.066Z,1.87
2017-07-24T06:35:19.778Z,2.17
2017-07-24T06:36:24.842Z,1.75
2017-07-24T06:37:29.977Z,1.77
2017-07-24T06:38:35.574Z,2.17
2017-07-24T06:39:40.627Z,2.10
2017-07-24T06:40:45.692Z,2.65
2017-07-24T06:41:50.773Z,2.10
2017-07-24T06:42:55.881Z,2.10
2017-07-24T06:44:00.934Z,1.90
2017-07-24T06:45:05.908Z,2.62
2017-07-24T06:46:10.908Z,2.20
2017-07-24T06:47:15.999Z,2.40
2017-07-24T06:48:21.105Z,2.35
2017-07-24T06:49:26.151Z,2.30
2017-07-24T06:50:31.124Z,2.45
2017-07-24T06:51:36.114Z,2.15
2017-07-24T06:52:41.197Z,2.53
2017-07-24T06:53:46.232Z,2.22
2017-07-24T06:54:51.823Z,2.05
2017-07-24T06:55:57.523Z,3.05
2017-07-24T06:57:02.565Z,2.10
2017-07-24T06:58:07.646Z,2.15
2017-07-24T06:59:12.776Z,2.15
2017-07-24T07:00:17.829Z,1.87
2017-07-24T07:01:22.881Z,2.50
2017-07-24T07:02:27.890Z,2.33
2017-07-24T07:03:34.262Z,1.70
2017-07-24T07:04:39.423Z,2.08
2017-07-24T07:05:44.437Z,2.03
2017-07-24T07:06:50.130Z,2.60
2017-07-24T07:07:55.118Z,2.03
2017-07-24T07:09:00.125Z,2.25
2017-07-24T07:10:05.102Z,1.98
2017-07-24T07:11:10.078Z,1.60
2017-07-24T07:12:15.065Z,2.37
2017-07-24T07:13:20.239Z,2.62
2017-07-24T07:14:25.205Z,1.95
2017-07-24T07:15:30.281Z,2.53
2017-07-24T07:16:35.301Z,2.15
2017-07-24T07:17:40.281Z,1.83
2017-07-24T07:18:45.349Z,1.95
2017-07-24T07:19:50.350Z,2.50
2017-07-24T07:20:55.462Z,2.40
2017-07-24T07:22:00.513Z,2.03
2017-07-24T07:23:05.598Z,1.87
2017-07-24T07:24:10.673Z,1.83
2017-07-24T07:25:15.669Z,1.92
2017-07-24T07:26:20.772Z,2.33
2017-07-24T07:27:26.400Z,2.53
2017-07-24T07:28:31.434Z,2.03
2017-07-24T07:29:36.641Z,2.65
2017-07-24T07:30:43.921Z,2.35
2017-07-24T07:31:48.973Z,2.12
2017-07-24T07:32:54.019Z,2.50
2017-07-24T07:33:59.167Z,2.15
2017-07-24T07:35:04.181Z,2.10
2017-07-24T07:36:09.181Z,2.20
2017-07-24T07:37:14.266Z,1.77
2017-07-24T07:38:19.341Z,2.05
2017-07-24T07:39:24.430Z,1.90
2017-07-24T07:40:29.493Z,1.58
2017-07-24T07:41:34.497Z,1.87
2017-07-24T07:42:39.582Z,1.70
2017-07-24T07:43:44.658Z,1.95
2017-07-24T07:44:49.722Z,1.58
2017-07-24T07:45:54.716Z,1.70
2017-07-24T07:46:59.790Z,1.80
2017-07-24T07:48:04.824Z,2.10
2017-07-24T07:49:09.869Z,1.95
2017-07-24T07:50:14.821Z,2.15
2017-07-24T07:51:19.825Z,2.05
2017-07-24T07:52:24.823Z,1.60
2017-07-24T07:53:29.908Z,1.70
2017-07-24T07:54:34.995Z,1.83
2017-07-24T07:55:40.710Z,1.67
2017-07-24T07:56:45.793Z,1.85
2017-07-24T07:57:51.457Z,1.85
2017-07-24T07:58:56.495Z,1.67
2017-07-24T08:00:01.512Z,1.70
2017-07-24T08:01:06.531Z,1.65
2017-07-24T08:02:11.583Z,1.75
2017-07-24T08:03:16.589Z,1.87
2017-07-24T08:04:21.681Z,1.70
2017-07-24T08:05:26.758Z,2.30
2017-07-24T08:06:31.814Z,2.00
2017-07-24T08:07:36.913Z,1.50
2017-07-24T08:08:41.993Z,1.52
2017-07-24T08:09:46.935Z,1.95
2017-07-24T08:10:51.970Z,1.90
2017-07-24T08:11:56.846Z,2.05
2017-07-24T08:13:01.748Z,2.00
2017-07-24T08:14:06.810Z,1.90
2017-07-24T08:15:11.928Z,1.92
2017-07-24T08:16:16.982Z,1.80
2017-07-24T08:17:22.074Z,1.58
2017-07-24T08:18:26.959Z,1.67
2017-07-24T08:19:32.167Z,1.70
2017-07-24T08:20:37.237Z,1.83
2017-07-24T08:21:42.259Z,1.70
2017-07-24T08:22:47.277Z,2.22
2017-07-24T08:23:52.367Z,1.48
2017-07-24T08:24:57.438Z,1.75
2017-07-24T08:26:02.711Z,1.77
2017-07-24T08:27:07.692Z,1.73
2017-07-24T08:28:12.833Z,1.27
2017-07-24T08:29:17.874Z,1.55
2017-07-24T08:30:22.884Z,1.65
2017-07-24T08:31:27.950Z,1.60
2017-07-24T08:32:32.921Z,1.42
2017-07-24T08:33:38.097Z,1.37
2017-07-24T08:34:43.090Z,1.42
2017-07-24T08:35:48.277Z,1.90
2017-07-24T08:36:53.310Z,1.90
2017-07-24T08:37:58.361Z,1.70
2017-07-24T08:39:09.352Z,1.65
2017-07-24T08:40:14.344Z,1.60
2017-07-24T08:41:19.435Z,1.92
2017-07-24T08:42:24.529Z,1.80
2017-07-24T08:43:29.582Z,1.67
2017-07-24T08:44:34.663Z,1.80
2017-07-24T08:45:39.658Z,1.55
2017-07-24T08:46:44.832Z,1.70
2017-07-24T08:47:49.992Z,1.70
2017-07-24T08:48:58.505Z,1.90
2017-07-24T08:50:06.976Z,2.03
2017-07-24T08:51:12.645Z,1.70
2017-07-24T08:52:17.657Z,1.58
2017-07-24T08:53:22.753Z,1.75
2017-07-24T08:54:27.812Z,1.52
2017-07-24T08:55:32.887Z,1.58
2017-07-24T08:56:37.853Z,1.90
2017-07-24T08:57:42.866Z,1.62
2017-07-24T08:58:47.953Z,1.73
2017-07-24T08:59:53.010Z,1.83
2017-07-24T09:00:58.600Z,1.92
2017-07-24T09:02:03.578Z,1.58
2017-07-24T09:03:08.585Z,1.92
2017-07-24T09:04:13.691Z,1.80
2017-07-24T09:05:18.743Z,1.87
2017-07-24T09:06:23.793Z,1.60
2017-07-24T09:07:28.809Z,1.80
2017-07-24T09:08:33.913Z,1.92
2017-07-24T09:09:49.576Z,1.60
2017-07-24T09:10:56.667Z,1.80
2017-07-24T09:12:01.734Z,1.90
2017-07-24T09:13:07.297Z,1.90
2017-07-24T09:14:12.335Z,1.73
2017-07-24T09:15:17.442Z,1.70
2017-07-24T09:16:22.451Z,1.40
2017-07-24T09:17:27.455Z,2.22
2017-07-24T09:18:32.538Z,1.77
2017-07-24T09:19:37.606Z,1.65
2017-07-24T09:20:42.748Z,1.48
2017-07-24T09:21:47.781Z,1.65
2017-07-24T09:22:52.749Z,1.70
2017-07-24T09:23:57.749Z,1.35
2017-07-24T09:25:02.744Z,1.55
2017-07-24T09:26:07.841Z,1.75
2017-07-24T09:27:12.902Z,1.20
2017-07-24T09:28:17.993Z,1.45
2017-07-24T09:29:22.997Z,2.15
2017-07-24T09:30:29.453Z,1.55
2017-07-24T09:31:34.456Z,1.60
2017-07-24T09:32:39.442Z,1.52
2017-07-24T09:33:44.414Z,1.20
2017-07-24T09:34:49.406Z,1.67
2017-07-24T09:35:54.426Z,1.70
2017-07-24T09:36:59.505Z,1.23
2017-07-24T09:38:04.546Z,1.42
2017-07-24T09:39:09.362Z,1.23
2017-07-24T09:40:14.515Z,1.10
2017-07-24T09:41:20.171Z,1.10
2017-07-24T09:42:25.248Z,1.30
2017-07-24T09:43:30.273Z,1.40
2017-07-24T09:44:35.269Z,1.08
2017-07-24T09:45:40.261Z,1.40
2017-07-24T09:46:45.355Z,1.37
2017-07-24T09:47:50.453Z,1.60
2017-07-24T09:48:55.488Z,1.37
2017-07-24T09:50:00.605Z,1.10
2017-07-24T09:51:05.911Z,1.25
2017-07-24T09:52:11.143Z,1.33
2017-07-24T09:53:16.166Z,1.10
2017-07-24T09:54:21.220Z,1.25
2017-07-24T09:55:26.233Z,1.20
2017-07-24T09:56:31.271Z,1.60
2017-07-24T09:57:36.319Z,1.02
2017-07-24T09:58:41.393Z,1.25
2017-07-24T09:59:46.469Z,1.50
2017-07-24T10:00:51.546Z,1.40
2017-07-24T10:01:56.585Z,1.42
2017-07-24T10:03:01.570Z,1.30
2017-07-24T10:04:07.229Z,1.45
2017-07-24T10:05:12.295Z,1.20
2017-07-24T10:06:17.356Z,1.20
2017-07-24T10:07:25.001Z,1.37
2017-07-24T10:08:29.994Z,1.87
2017-07-24T10:09:35.104Z,1.45
2017-07-24T10:10:40.130Z,1.40
2017-07-24T10:11:45.844Z,1.42
2017-07-24T10:12:51.137Z,1.50
2017-07-24T10:13:56.716Z,1.20
2017-07-24T10:15:01.757Z,1.33
2017-07-24T10:16:06.764Z,1.85
2017-07-24T10:17:11.791Z,1.50
2017-07-24T10:18:16.874Z,1.17
2017-07-24T10:19:21.942Z,1.37
2017-07-24T10:20:26.938Z,1.52
2017-07-24T10:21:31.946Z,1.60
2017-07-24T10:22:37.001Z,1.40
2017-07-24T10:23:41.988Z,1.50
2017-07-24T10:24:47.141Z,1.23
2017-07-24T10:25:52.191Z,1.60
2017-07-24T10:26:57.315Z,1.23
2017-07-24T10:28:02.314Z,1.45
2017-07-24T10:29:07.302Z,1.50
2017-07-24T10:30:12.387Z,1.35
2017-07-24T10:31:17.513Z,1.10
2017-07-24T10:32:22.544Z,1.05
2017-07-24T10:33:27.531Z,1.40
2017-07-24T10:34:32.630Z,1.15
2017-07-24T10:35:37.708Z,1.10
2017-07-24T10:36:42.806Z,1.20
2017-07-24T10:37:47.949Z,1.58
2017-07-24T10:38:53.032Z,1.60
2017-07-24T10:39:58.062Z,1.10
2017-07-24T10:41:03.115Z,1.30
2017-07-24T10:42:08.249Z,1.40
2017-07-24T10:43:13.291Z,1.30
2017-07-24T10:44:18.358Z,1.62
2017-07-24T10:45:23.500Z,1.30
2017-07-24T10:46:28.547Z,1.42
2017-07-24T10:47:33.693Z,1.35
2017-07-24T10:48:38.719Z,1.52
2017-07-24T10:49:43.883Z,1.60
2017-07-24T10:50:48.864Z,1.52
2017-07-24T10:51:53.875Z,1.50
2017-07-24T10:52:58.979Z,1.40
2017-07-24T10:54:04.644Z,1.27
2017-07-24T10:55:09.620Z,1.20
2017-07-24T10:56:14.801Z,1.20
2017-07-24T10:57:19.789Z,1.58
2017-07-24T10:58:24.817Z,1.35
2017-07-24T10:59:29.847Z,1.23
2017-07-24T11:00:34.858Z,1.40
2017-07-24T11:01:39.917Z,1.25
2017-07-24T11:02:44.903Z,1.48
2017-07-24T11:03:49.914Z,1.20
2017-07-24T11:04:55.557Z,1.35
2017-07-24T11:06:00.565Z,1.12
2017-07-24T11:07:05.641Z,1.20
2017-07-24T11:08:10.624Z,1.75
2017-07-24T11:09:15.658Z,1.50
2017-07-24T11:10:20.702Z,1.50
2017-07-24T11:11:25.782Z,1.40
2017-07-24T11:12:30.943Z,1.30
2017-07-24T11:13:35.950Z,1.30
2017-07-24T11:14:40.967Z,1.25
2017-07-24T11:15:45.996Z,0.98
2017-07-24T11:16:51.011Z,1.40
2017-07-24T11:17:56.092Z,1.80
2017-07-24T11:19:01.072Z,1.40
2017-07-24T11:20:06.189Z,1.40
2017-07-24T11:21:11.242Z,1.20
2017-07-24T11:22:17.822Z,1.70
2017-07-24T11:23:22.834Z,1.30
2017-07-24T11:24:27.730Z,1.45
2017-07-24T11:25:32.830Z,1.27
2017-07-24T11:26:37.879Z,1.60
2017-07-24T11:27:42.947Z,1.70
2017-07-24T11:28:47.958Z,2.17
2017-07-24T11:29:53.034Z,1.20
2017-07-24T11:30:58.305Z,1.55
2017-07-24T11:32:03.285Z,1.50
2017-07-24T11:33:08.302Z,1.55
2017-07-24T11:34:13.330Z,1.30
2017-07-24T11:35:25.824Z,1.40
2017-07-24T11:36:30.828Z,1.00
2017-07-24T11:37:35.872Z,1.10
2017-07-24T11:38:40.951Z,1.40
2017-07-24T11:39:45.942Z,1.30
2017-07-24T11:40:51.124Z,1.25
2017-07-24T11:41:56.137Z,1.50
2017-07-24T11:43:01.190Z,1.10
2017-07-24T11:44:06.174Z,1.17
2017-07-24T11:45:11.165Z,1.60
2017-07-24T11:46:16.153Z,1.25
2017-07-24T11:47:21.271Z,1.40
2017-07-24T11:48:26.292Z,1.30
2017-07-24T11:49:31.274Z,1.40
2017-07-24T11:50:36.271Z,1.65
2017-07-24T11:51:41.263Z,1.10
2017-07-24T11:52:46.389Z,1.40
2017-07-24T11:53:51.523Z,1.30
2017-07-24T11:54:56.598Z,1.23
2017-07-24T11:56:09.049Z,1.55
2017-07-24T11:57:15.326Z,1.50
2017-07-24T11:58:20.446Z,1.85
2017-07-24T11:59:25.537Z,1.40
2017-07-24T12:00:30.203Z,1.48
2017-07-24T12:01:35.288Z,1.75
2017-07-24T12:02:40.289Z,1.20
2017-07-24T12:03:45.527Z,1.40
2017-07-24T12:04:50.550Z,1.50
2017-07-24T12:05:56.096Z,1.23
2017-07-24T12:07:01.127Z,1.27
2017-07-24T12:08:06.186Z,1.35
2017-07-24T12:09:11.213Z,1.70
2017-07-24T12:10:17.275Z,1.50
2017-07-24T12:11:22.303Z,1.37
2017-07-24T12:12:27.364Z,1.23
2017-07-24T12:13:32.317Z,1.35
2017-07-24T12:14:37.370Z,1.25
2017-07-24T12:15:42.417Z,1.58
2017-07-24T12:16:49.646Z,1.30
2017-07-24T12:17:56.665Z,1.70
2017-07-24T12:19:01.671Z,1.40
2017-07-24T12:20:12.907Z,2.00
2017-07-24T12:21:17.954Z,1.27
2017-07-24T12:22:22.960Z,1.55
2017-07-24T12:23:28.768Z,1.62
2017-07-24T12:24:33.814Z,1.80
2017-07-24T12:25:38.931Z,1.33
2017-07-24T12:26:44.002Z,1.48
2017-07-24T12:27:49.003Z,1.37
2017-07-24T12:28:54.074Z,1.23
2017-07-24T12:29:59.123Z,1.48
2017-07-24T12:31:04.174Z,1.70
2017-07-24T12:32:09.202Z,1.35
2017-07-24T12:33:14.202Z,1.40
2017-07-24T12:34:19.182Z,1.80
2017-07-24T12:35:24.265Z,1.65
2017-07-24T12:36:29.261Z,1.70
2017-07-24T12:37:47.074Z,1.60
2017-07-24T12:38:53.509Z,1.55
2017-07-24T12:39:58.519Z,1.52
2017-07-24T12:41:03.614Z,1.70
2017-07-24T12:42:08.725Z,1.60
2017-07-24T12:43:13.772Z,1.27
2017-07-24T12:44:18.862Z,1.27
2017-07-24T12:45:23.834Z,1.62
2017-07-24T12:46:28.911Z,1.25
2017-07-24T12:47:33.979Z,1.73
2017-07-24T12:48:38.999Z,1.48
2017-07-24T12:49:44.066Z,1.83
2017-07-24T12:50:49.060Z,1.40
2017-07-24T12:51:54.122Z,1.30
2017-07-24T12:52:59.693Z,1.30
2017-07-24T12:54:05.678Z,1.73
2017-07-24T12:55:10.692Z,1.48
2017-07-24T12:56:15.789Z,1.40
2017-07-24T12:57:20.845Z,1.50
2017-07-24T12:58:28.700Z,1.52
2017-07-24T12:59:33.701Z,1.55
2017-07-24T13:00:38.681Z,1.27
2017-07-24T13:01:43.665Z,1.40
2017-07-24T13:02:48.644Z,1.42
2017-07-24T13:03:53.682Z,1.15
2017-07-24T13:04:58.688Z,1.77
2017-07-24T13:06:03.702Z,1.98
2017-07-24T13:07:08.793Z,1.60
2017-07-24T13:08:13.881Z,2.00
2017-07-24T13:09:18.964Z,2.28
2017-07-24T13:10:24.788Z,3.00
2017-07-24T13:11:29.833Z,1.73
2017-07-24T13:12:34.937Z,2.40
2017-07-24T13:13:40.017Z,1.73
2017-07-24T13:14:45.112Z,2.25
2017-07-24T13:15:50.174Z,2.20
2017-07-24T13:16:55.325Z,2.47
2017-07-24T13:18:00.365Z,2.30
2017-07-24T13:19:05.429Z,2.33
2017-07-24T13:20:10.534Z,2.30
2017-07-24T13:21:15.570Z,2.65
2017-07-24T13:22:20.552Z,3.42
2017-07-24T13:23:26.119Z,3.05
2017-07-24T13:24:30.980Z,3.22
2017-07-24T13:25:36.106Z,2.80
2017-07-24T13:26:41.089Z,3.50
2017-07-24T13:27:47.521Z,3.00
2017-07-24T13:28:52.611Z,2.90
2017-07-24T13:29:57.573Z,2.75
2017-07-24T13:31:02.600Z,2.90
2017-07-24T13:32:07.658Z,2.50
2017-07-24T13:33:12.645Z,2.90
2017-07-24T13:34:17.841Z,3.00
2017-07-24T13:35:22.884Z,2.65
2017-07-24T13:36:27.906Z,3.10
2017-07-24T13:37:32.765Z,3.25
2017-07-24T13:38:37.765Z,3.10
2017-07-24T13:39:42.862Z,3.35
2017-07-24T13:40:47.921Z,3.20
2017-07-24T13:41:52.745Z,3.15
2017-07-24T13:42:58.511Z,2.85
2017-07-24T13:44:03.577Z,2.90
2017-07-24T13:45:08.562Z,3.00
2017-07-24T13:46:13.556Z,2.67
2017-07-24T13:47:18.545Z,3.28
2017-07-24T13:48:24.111Z,2.90
2017-07-24T13:49:29.113Z,2.85
2017-07-24T13:50:34.213Z,3.15
2017-07-24T13:51:39.291Z,3.00
2017-07-24T13:52:44.371Z,3.22
2017-07-24T13:53:49.442Z,2.85
2017-07-24T13:54:54.829Z,2.90
2017-07-24T13:55:59.814Z,3.35
2017-07-24T13:57:04.765Z,2.75
2017-07-24T13:58:09.796Z,2.87
2017-07-24T13:59:14.861Z,3.10
2017-07-24T14:00:19.845Z,3.55
2017-07-24T14:01:25.005Z,2.90
2017-07-24T14:02:30.127Z,3.35
2017-07-24T14:03:35.221Z,3.12
2017-07-24T14:04:40.280Z,3.62
2017-07-24T14:05:45.257Z,3.05
2017-07-24T14:06:50.232Z,3.80
2017-07-24T14:07:55.799Z,3.25
2017-07-24T14:09:01.404Z,3.20
2017-07-24T14:10:06.409Z,3.70
2017-07-24T14:11:11.393Z,3.30
2017-07-24T14:12:16.398Z,3.58
2017-07-24T14:13:21.447Z,3.30
2017-07-24T14:14:26.485Z,4.28
2017-07-24T14:15:31.522Z,3.83
2017-07-24T14:16:36.990Z,3.58
2017-07-24T14:17:41.997Z,3.33
2017-07-24T14:18:47.022Z,3.83
2017-07-24T14:19:51.977Z,3.60
2017-07-24T14:20:57.030Z,3.40
2017-07-24T14:22:02.045Z,3.80
2017-07-24T14:23:07.125Z,3.15
2017-07-24T14:24:12.104Z,3.60
2017-07-24T14:25:17.105Z,3.03
2017-07-24T14:26:22.171Z,3.78
2017-07-24T14:27:27.237Z,3.53
2017-07-24T14:28:32.229Z,3.45
2017-07-24T14:29:37.249Z,3.55